sensor_id;sensor_type;location;lat;lon;timestamp;P1;durP1;ratioP1;P2;durP2;ratioP2
23384;SDS011;11865;45.394;10.978;2024-02-04T00:00:56;92.18;;;50.83;;
23384;SDS011;11865;45.394;10.978;2024-02-04T00:03:24;94.07;;;50.88;;
23384;SDS011;11865;45.394;10.978;2024-02-04T00:05:51;97.40;;;51.40;;
23384;SDS011;11865;45.394;10.978;2024-02-04T00:08:19;95.40;;;50.10;;
23384;SDS011;11865;45.394;10.978;2024-02-04T00:10:46;101.47;;;54.97;;
23384;SDS011;11865;45.394;10.978;2024-02-04T00:13:14;114.95;;;56.45;;
23384;SDS011;11865;45.394;10.978;2024-02-04T00:15:41;99.80;;;55.42;;
23384;SDS011;11865;45.394;10.978;2024-02-04T00:18:09;99.30;;;53.10;;
23384;SDS011;11865;45.394;10.978;2024-02-04T00:20:37;96.68;;;53.15;;
23384;SDS011;11865;45.394;10.978;2024-02-04T00:23:04;93.18;;;49.45;;
23384;SDS011;11865;45.394;10.978;2024-02-04T00:25:32;93.40;;;49.90;;
23384;SDS011;11865;45.394;10.978;2024-02-04T00:28:00;102.03;;;53.85;;
23384;SDS011;11865;45.394;10.978;2024-02-04T00:30:28;93.38;;;51.53;;
23384;SDS011;11865;45.394;10.978;2024-02-04T00:32:55;117.75;;;58.20;;
23384;SDS011;11865;45.394;10.978;2024-02-04T00:35:30;117.47;;;60.70;;
23384;SDS011;11865;45.394;10.978;2024-02-04T00:37:57;110.10;;;56.45;;
23384;SDS011;11865;45.394;10.978;2024-02-04T00:40:25;98.30;;;53.58;;
23384;SDS011;11865;45.394;10.978;2024-02-04T00:42:53;91.07;;;49.20;;
23384;SDS011;11865;45.394;10.978;2024-02-04T00:45:21;98.50;;;50.85;;
23384;SDS011;11865;45.394;10.978;2024-02-04T00:47:48;98.80;;;52.38;;
23384;SDS011;11865;45.394;10.978;2024-02-04T00:50:16;100.63;;;54.42;;
23384;SDS011;11865;45.394;10.978;2024-02-04T00:52:44;95.97;;;51.08;;
23384;SDS011;11865;45.394;10.978;2024-02-04T00:55:12;105.47;;;53.20;;
23384;SDS011;11865;45.394;10.978;2024-02-04T00:57:39;87.95;;;49.22;;
23384;SDS011;11865;45.394;10.978;2024-02-04T01:00:07;92.60;;;51.80;;
23384;SDS011;11865;45.394;10.978;2024-02-04T01:02:35;85.25;;;47.58;;
23384;SDS011;11865;45.394;10.978;2024-02-04T01:05:02;101.97;;;55.03;;
23384;SDS011;11865;45.394;10.978;2024-02-04T01:07:31;105.78;;;56.25;;
23384;SDS011;11865;45.394;10.978;2024-02-04T01:09:58;128.63;;;62.85;;
23384;SDS011;11865;45.394;10.978;2024-02-04T01:12:26;126.18;;;64.25;;
23384;SDS011;11865;45.394;10.978;2024-02-04T01:14:54;106.70;;;55.88;;
23384;SDS011;11865;45.394;10.978;2024-02-04T01:17:21;97.75;;;51.85;;
23384;SDS011;11865;45.394;10.978;2024-02-04T01:19:49;95.22;;;48.90;;
23384;SDS011;11865;45.394;10.978;2024-02-04T01:22:17;91.78;;;48.50;;
23384;SDS011;11865;45.394;10.978;2024-02-04T01:24:44;84.55;;;47.83;;
23384;SDS011;11865;45.394;10.978;2024-02-04T01:27:15;90.80;;;48.55;;
23384;SDS011;11865;45.394;10.978;2024-02-04T01:29:42;95.53;;;50.45;;
23384;SDS011;11865;45.394;10.978;2024-02-04T01:32:10;94.82;;;50.22;;
23384;SDS011;11865;45.394;10.978;2024-02-04T01:34:38;98.13;;;51.33;;
23384;SDS011;11865;45.394;10.978;2024-02-04T01:37:05;97.35;;;51.50;;
23384;SDS011;11865;45.394;10.978;2024-02-04T01:39:33;88.07;;;47.83;;
23384;SDS011;11865;45.394;10.978;2024-02-04T01:42:00;92.93;;;48.80;;
23384;SDS011;11865;45.394;10.978;2024-02-04T01:44:28;102.85;;;52.30;;
23384;SDS011;11865;45.394;10.978;2024-02-04T01:46:56;84.70;;;46.47;;
23384;SDS011;11865;45.394;10.978;2024-02-04T01:49:24;88.85;;;48.10;;
23384;SDS011;11865;45.394;10.978;2024-02-04T01:51:53;88.28;;;48.30;;
23384;SDS011;11865;45.394;10.978;2024-02-04T01:54:20;94.35;;;50.90;;
23384;SDS011;11865;45.394;10.978;2024-02-04T01:56:51;109.80;;;58.28;;
23384;SDS011;11865;45.394;10.978;2024-02-04T01:59:19;120.50;;;59.63;;
23384;SDS011;11865;45.394;10.978;2024-02-04T02:01:55;100.20;;;52.20;;
23384;SDS011;11865;45.394;10.978;2024-02-04T02:04:28;98.60;;;53.50;;
23384;SDS011;11865;45.394;10.978;2024-02-04T02:06:56;102.35;;;54.08;;
23384;SDS011;11865;45.394;10.978;2024-02-04T02:09:27;109.03;;;56.08;;
23384;SDS011;11865;45.394;10.978;2024-02-04T02:12:18;100.75;;;53.83;;
23384;SDS011;11865;45.394;10.978;2024-02-04T02:14:48;104.40;;;53.10;;
23384;SDS011;11865;45.394;10.978;2024-02-04T02:17:24;96.68;;;50.33;;
23384;SDS011;11865;45.394;10.978;2024-02-04T02:20:19;93.68;;;47.58;;
23384;SDS011;11865;45.394;10.978;2024-02-04T02:22:57;93.78;;;49.47;;
23384;SDS011;11865;45.394;10.978;2024-02-04T02:25:35;105.28;;;52.50;;
23384;SDS011;11865;45.394;10.978;2024-02-04T02:28:04;120.13;;;60.80;;
23384;SDS011;11865;45.394;10.978;2024-02-04T02:30:33;106.18;;;53.83;;
23384;SDS011;11865;45.394;10.978;2024-02-04T02:33:00;100.55;;;54.58;;
23384;SDS011;11865;45.394;10.978;2024-02-04T02:35:28;94.95;;;51.15;;
23384;SDS011;11865;45.394;10.978;2024-02-04T02:38:03;96.70;;;52.38;;
23384;SDS011;11865;45.394;10.978;2024-02-04T02:40:48;96.13;;;49.78;;
23384;SDS011;11865;45.394;10.978;2024-02-04T02:43:20;97.05;;;50.83;;
23384;SDS011;11865;45.394;10.978;2024-02-04T02:45:49;97.03;;;51.65;;
23384;SDS011;11865;45.394;10.978;2024-02-04T02:48:17;100.40;;;52.75;;
23384;SDS011;11865;45.394;10.978;2024-02-04T02:50:47;109.25;;;56.20;;
23384;SDS011;11865;45.394;10.978;2024-02-04T02:53:14;103.47;;;53.67;;
23384;SDS011;11865;45.394;10.978;2024-02-04T02:55:42;105.95;;;51.85;;
23384;SDS011;11865;45.394;10.978;2024-02-04T02:58:13;106.32;;;56.13;;
23384;SDS011;11865;45.394;10.978;2024-02-04T03:00:41;92.88;;;51.05;;
23384;SDS011;11865;45.394;10.978;2024-02-04T03:03:09;109.05;;;52.95;;
23384;SDS011;11865;45.394;10.978;2024-02-04T03:05:36;100.30;;;50.80;;
23384;SDS011;11865;45.394;10.978;2024-02-04T03:08:05;103.32;;;56.75;;
23384;SDS011;11865;45.394;10.978;2024-02-04T03:10:32;104.28;;;52.80;;
23384;SDS011;11865;45.394;10.978;2024-02-04T03:13:00;104.38;;;52.45;;
23384;SDS011;11865;45.394;10.978;2024-02-04T03:15:29;125.35;;;58.88;;
23384;SDS011;11865;45.394;10.978;2024-02-04T03:17:57;104.32;;;54.47;;
23384;SDS011;11865;45.394;10.978;2024-02-04T03:20:24;102.20;;;53.55;;
23384;SDS011;11865;45.394;10.978;2024-02-04T03:22:52;101.80;;;53.58;;
23384;SDS011;11865;45.394;10.978;2024-02-04T03:25:19;105.40;;;53.50;;
23384;SDS011;11865;45.394;10.978;2024-02-04T03:27:47;104.40;;;55.95;;
23384;SDS011;11865;45.394;10.978;2024-02-04T03:30:15;120.00;;;59.40;;
23384;SDS011;11865;45.394;10.978;2024-02-04T03:32:42;114.00;;;56.63;;
23384;SDS011;11865;45.394;10.978;2024-02-04T03:35:10;105.97;;;54.30;;
23384;SDS011;11865;45.394;10.978;2024-02-04T03:37:38;115.07;;;58.85;;
23384;SDS011;11865;45.394;10.978;2024-02-04T03:40:05;109.32;;;55.85;;
23384;SDS011;11865;45.394;10.978;2024-02-04T03:42:34;103.82;;;54.15;;
23384;SDS011;11865;45.394;10.978;2024-02-04T03:45:02;104.53;;;53.67;;
23384;SDS011;11865;45.394;10.978;2024-02-04T03:47:30;101.68;;;53.17;;
23384;SDS011;11865;45.394;10.978;2024-02-04T03:49:58;95.53;;;50.72;;
23384;SDS011;11865;45.394;10.978;2024-02-04T03:52:26;101.18;;;52.22;;
23384;SDS011;11865;45.394;10.978;2024-02-04T03:54:53;108.93;;;53.33;;
23384;SDS011;11865;45.394;10.978;2024-02-04T03:57:21;104.90;;;52.38;;
23384;SDS011;11865;45.394;10.978;2024-02-04T03:59:48;111.20;;;53.78;;
23384;SDS011;11865;45.394;10.978;2024-02-04T04:02:16;103.18;;;53.85;;
23384;SDS011;11865;45.394;10.978;2024-02-04T04:04:43;118.38;;;60.17;;
23384;SDS011;11865;45.394;10.978;2024-02-04T04:09:43;131.15;;;62.88;;
23384;SDS011;11865;45.394;10.978;2024-02-04T04:12:11;116.57;;;56.13;;
23384;SDS011;11865;45.394;10.978;2024-02-04T04:14:38;109.40;;;56.65;;
23384;SDS011;11865;45.394;10.978;2024-02-04T04:17:06;125.10;;;65.05;;
23384;SDS011;11865;45.394;10.978;2024-02-04T04:19:33;141.95;;;67.43;;
23384;SDS011;11865;45.394;10.978;2024-02-04T04:22:03;141.52;;;69.00;;
23384;SDS011;11865;45.394;10.978;2024-02-04T04:24:31;124.82;;;65.03;;
23384;SDS011;11865;45.394;10.978;2024-02-04T04:26:58;122.25;;;61.10;;
23384;SDS011;11865;45.394;10.978;2024-02-04T04:29:26;106.85;;;55.90;;
23384;SDS011;11865;45.394;10.978;2024-02-04T04:31:54;100.55;;;53.47;;
23384;SDS011;11865;45.394;10.978;2024-02-04T04:34:21;109.85;;;55.60;;
23384;SDS011;11865;45.394;10.978;2024-02-04T04:36:49;128.13;;;60.72;;
23384;SDS011;11865;45.394;10.978;2024-02-04T04:39:16;129.15;;;62.95;;
23384;SDS011;11865;45.394;10.978;2024-02-04T04:41:44;125.95;;;64.63;;
23384;SDS011;11865;45.394;10.978;2024-02-04T04:44:12;121.07;;;61.17;;
23384;SDS011;11865;45.394;10.978;2024-02-04T04:46:40;111.45;;;57.22;;
23384;SDS011;11865;45.394;10.978;2024-02-04T04:49:07;108.28;;;55.13;;
23384;SDS011;11865;45.394;10.978;2024-02-04T04:51:36;107.78;;;54.97;;
23384;SDS011;11865;45.394;10.978;2024-02-04T04:54:04;96.65;;;50.72;;
23384;SDS011;11865;45.394;10.978;2024-02-04T04:56:37;104.05;;;53.50;;
23384;SDS011;11865;45.394;10.978;2024-02-04T04:59:09;113.22;;;54.40;;
23384;SDS011;11865;45.394;10.978;2024-02-04T05:01:37;111.85;;;55.80;;
23384;SDS011;11865;45.394;10.978;2024-02-04T05:04:05;120.88;;;59.17;;
23384;SDS011;11865;45.394;10.978;2024-02-04T05:06:32;125.28;;;60.10;;
23384;SDS011;11865;45.394;10.978;2024-02-04T05:09:00;137.80;;;65.05;;
23384;SDS011;11865;45.394;10.978;2024-02-04T05:11:28;137.13;;;65.30;;
23384;SDS011;11865;45.394;10.978;2024-02-04T05:13:55;134.65;;;67.78;;
23384;SDS011;11865;45.394;10.978;2024-02-04T05:16:23;139.68;;;69.07;;
23384;SDS011;11865;45.394;10.978;2024-02-04T05:18:50;148.82;;;71.20;;
23384;SDS011;11865;45.394;10.978;2024-02-04T05:21:18;136.57;;;70.53;;
23384;SDS011;11865;45.394;10.978;2024-02-04T05:23:46;136.77;;;67.05;;
23384;SDS011;11865;45.394;10.978;2024-02-04T05:26:13;124.65;;;61.88;;
23384;SDS011;11865;45.394;10.978;2024-02-04T05:28:41;136.13;;;68.00;;
23384;SDS011;11865;45.394;10.978;2024-02-04T05:31:08;140.57;;;70.95;;
23384;SDS011;11865;45.394;10.978;2024-02-04T05:33:36;142.48;;;69.90;;
23384;SDS011;11865;45.394;10.978;2024-02-04T05:36:04;136.05;;;71.00;;
23384;SDS011;11865;45.394;10.978;2024-02-04T05:38:32;142.63;;;72.60;;
23384;SDS011;11865;45.394;10.978;2024-02-04T05:41:00;131.23;;;68.38;;
23384;SDS011;11865;45.394;10.978;2024-02-04T05:43:28;116.65;;;59.92;;
23384;SDS011;11865;45.394;10.978;2024-02-04T05:45:55;122.78;;;64.32;;
23384;SDS011;11865;45.394;10.978;2024-02-04T05:48:23;132.73;;;67.13;;
23384;SDS011;11865;45.394;10.978;2024-02-04T05:50:51;127.47;;;62.95;;
23384;SDS011;11865;45.394;10.978;2024-02-04T05:53:18;124.80;;;64.57;;
23384;SDS011;11865;45.394;10.978;2024-02-04T05:55:46;116.68;;;60.00;;
23384;SDS011;11865;45.394;10.978;2024-02-04T05:58:14;112.70;;;55.75;;
23384;SDS011;11865;45.394;10.978;2024-02-04T06:00:41;118.70;;;60.85;;
23384;SDS011;11865;45.394;10.978;2024-02-04T06:03:09;119.68;;;60.42;;
23384;SDS011;11865;45.394;10.978;2024-02-04T06:05:37;113.65;;;57.22;;
23384;SDS011;11865;45.394;10.978;2024-02-04T06:08:05;105.22;;;55.38;;
23384;SDS011;11865;45.394;10.978;2024-02-04T06:10:33;101.18;;;54.95;;
23384;SDS011;11865;45.394;10.978;2024-02-04T06:13:00;110.30;;;55.08;;
23384;SDS011;11865;45.394;10.978;2024-02-04T06:15:28;103.05;;;52.97;;
23384;SDS011;11865;45.394;10.978;2024-02-04T06:17:55;114.18;;;56.80;;
23384;SDS011;11865;45.394;10.978;2024-02-04T06:20:23;124.22;;;60.72;;
23384;SDS011;11865;45.394;10.978;2024-02-04T06:22:50;135.48;;;64.07;;
23384;SDS011;11865;45.394;10.978;2024-02-04T06:25:18;131.93;;;61.22;;
23384;SDS011;11865;45.394;10.978;2024-02-04T06:27:46;112.80;;;55.72;;
23384;SDS011;11865;45.394;10.978;2024-02-04T06:30:13;110.43;;;56.67;;
23384;SDS011;11865;45.394;10.978;2024-02-04T06:32:41;112.32;;;57.20;;
23384;SDS011;11865;45.394;10.978;2024-02-04T06:35:09;101.95;;;53.03;;
23384;SDS011;11865;45.394;10.978;2024-02-04T06:37:36;114.90;;;56.83;;
23384;SDS011;11865;45.394;10.978;2024-02-04T06:40:04;126.10;;;63.75;;
23384;SDS011;11865;45.394;10.978;2024-02-04T06:42:32;131.27;;;61.58;;
23384;SDS011;11865;45.394;10.978;2024-02-04T06:45:00;109.05;;;54.70;;
23384;SDS011;11865;45.394;10.978;2024-02-04T06:47:27;104.80;;;52.65;;
23384;SDS011;11865;45.394;10.978;2024-02-04T06:49:55;123.28;;;61.33;;
23384;SDS011;11865;45.394;10.978;2024-02-04T06:52:23;103.93;;;54.00;;
23384;SDS011;11865;45.394;10.978;2024-02-04T06:54:50;124.47;;;61.45;;
23384;SDS011;11865;45.394;10.978;2024-02-04T06:57:18;115.75;;;58.30;;
23384;SDS011;11865;45.394;10.978;2024-02-04T06:59:46;111.20;;;55.83;;
23384;SDS011;11865;45.394;10.978;2024-02-04T07:02:13;105.43;;;55.15;;
23384;SDS011;11865;45.394;10.978;2024-02-04T07:04:41;119.65;;;58.38;;
23384;SDS011;11865;45.394;10.978;2024-02-04T07:07:08;107.72;;;56.28;;
23384;SDS011;11865;45.394;10.978;2024-02-04T07:09:36;109.03;;;56.75;;
23384;SDS011;11865;45.394;10.978;2024-02-04T07:12:03;112.13;;;57.40;;
23384;SDS011;11865;45.394;10.978;2024-02-04T07:14:32;114.30;;;55.50;;
23384;SDS011;11865;45.394;10.978;2024-02-04T07:16:59;117.00;;;57.83;;
23384;SDS011;11865;45.394;10.978;2024-02-04T07:19:27;110.82;;;56.33;;
23384;SDS011;11865;45.394;10.978;2024-02-04T07:21:55;106.63;;;53.05;;
23384;SDS011;11865;45.394;10.978;2024-02-04T07:24:23;103.43;;;53.88;;
23384;SDS011;11865;45.394;10.978;2024-02-04T07:26:50;111.10;;;56.15;;
23384;SDS011;11865;45.394;10.978;2024-02-04T07:29:18;103.30;;;53.35;;
23384;SDS011;11865;45.394;10.978;2024-02-04T07:31:45;107.03;;;56.92;;
23384;SDS011;11865;45.394;10.978;2024-02-04T07:34:13;138.65;;;65.65;;
23384;SDS011;11865;45.394;10.978;2024-02-04T07:36:40;128.52;;;63.47;;
23384;SDS011;11865;45.394;10.978;2024-02-04T07:39:08;138.38;;;70.80;;
23384;SDS011;11865;45.394;10.978;2024-02-04T07:41:36;126.97;;;62.72;;
23384;SDS011;11865;45.394;10.978;2024-02-04T07:44:03;119.93;;;58.75;;
23384;SDS011;11865;45.394;10.978;2024-02-04T07:46:31;109.72;;;56.45;;
23384;SDS011;11865;45.394;10.978;2024-02-04T07:48:59;105.07;;;55.25;;
23384;SDS011;11865;45.394;10.978;2024-02-04T07:51:26;117.97;;;60.35;;
23384;SDS011;11865;45.394;10.978;2024-02-04T07:53:54;127.65;;;62.33;;
23384;SDS011;11865;45.394;10.978;2024-02-04T07:56:22;131.43;;;67.57;;
23384;SDS011;11865;45.394;10.978;2024-02-04T07:58:49;127.38;;;65.70;;
23384;SDS011;11865;45.394;10.978;2024-02-04T08:01:17;116.65;;;59.97;;
23384;SDS011;11865;45.394;10.978;2024-02-04T08:03:45;118.22;;;62.15;;
23384;SDS011;11865;45.394;10.978;2024-02-04T08:06:14;117.22;;;60.28;;
23384;SDS011;11865;45.394;10.978;2024-02-04T08:08:42;138.48;;;70.38;;
23384;SDS011;11865;45.394;10.978;2024-02-04T08:11:17;112.35;;;61.63;;
23384;SDS011;11865;45.394;10.978;2024-02-04T08:13:45;126.20;;;65.90;;
23384;SDS011;11865;45.394;10.978;2024-02-04T08:16:12;127.95;;;68.03;;
23384;SDS011;11865;45.394;10.978;2024-02-04T08:18:40;140.20;;;72.60;;
23384;SDS011;11865;45.394;10.978;2024-02-04T08:21:08;138.80;;;71.50;;
23384;SDS011;11865;45.394;10.978;2024-02-04T08:23:36;150.23;;;74.13;;
23384;SDS011;11865;45.394;10.978;2024-02-04T08:26:03;146.80;;;77.05;;
23384;SDS011;11865;45.394;10.978;2024-02-04T08:28:31;143.52;;;73.63;;
23384;SDS011;11865;45.394;10.978;2024-02-04T08:30:58;144.80;;;74.95;;
23384;SDS011;11865;45.394;10.978;2024-02-04T08:33:26;140.00;;;74.68;;
23384;SDS011;11865;45.394;10.978;2024-02-04T08:35:54;142.70;;;72.68;;
23384;SDS011;11865;45.394;10.978;2024-02-04T08:38:21;145.40;;;75.30;;
23384;SDS011;11865;45.394;10.978;2024-02-04T08:40:49;145.82;;;76.35;;
23384;SDS011;11865;45.394;10.978;2024-02-04T08:43:16;143.60;;;75.65;;
23384;SDS011;11865;45.394;10.978;2024-02-04T08:45:44;146.07;;;77.30;;
23384;SDS011;11865;45.394;10.978;2024-02-04T08:48:12;150.40;;;76.97;;
23384;SDS011;11865;45.394;10.978;2024-02-04T08:50:39;145.98;;;73.65;;
23384;SDS011;11865;45.394;10.978;2024-02-04T08:53:07;139.27;;;72.75;;
23384;SDS011;11865;45.394;10.978;2024-02-04T08:55:34;144.82;;;76.20;;
23384;SDS011;11865;45.394;10.978;2024-02-04T08:58:02;145.93;;;74.68;;
23384;SDS011;11865;45.394;10.978;2024-02-04T09:00:30;135.68;;;73.93;;
23384;SDS011;11865;45.394;10.978;2024-02-04T09:02:57;135.98;;;73.22;;
23384;SDS011;11865;45.394;10.978;2024-02-04T09:05:25;133.60;;;72.55;;
23384;SDS011;11865;45.394;10.978;2024-02-04T09:07:52;140.15;;;74.95;;
23384;SDS011;11865;45.394;10.978;2024-02-04T09:10:22;137.48;;;75.13;;
23384;SDS011;11865;45.394;10.978;2024-02-04T09:12:49;134.40;;;71.75;;
23384;SDS011;11865;45.394;10.978;2024-02-04T09:15:17;134.18;;;67.03;;
23384;SDS011;11865;45.394;10.978;2024-02-04T09:17:45;130.20;;;70.07;;
23384;SDS011;11865;45.394;10.978;2024-02-04T09:20:12;132.02;;;68.75;;
23384;SDS011;11865;45.394;10.978;2024-02-04T09:22:42;124.18;;;65.80;;
23384;SDS011;11865;45.394;10.978;2024-02-04T09:25:10;123.93;;;65.95;;
23384;SDS011;11865;45.394;10.978;2024-02-04T09:27:38;127.10;;;65.60;;
23384;SDS011;11865;45.394;10.978;2024-02-04T09:30:06;123.88;;;64.03;;
23384;SDS011;11865;45.394;10.978;2024-02-04T09:32:34;124.60;;;64.72;;
23384;SDS011;11865;45.394;10.978;2024-02-04T09:35:02;120.32;;;63.85;;
23384;SDS011;11865;45.394;10.978;2024-02-04T09:37:30;125.78;;;65.93;;
23384;SDS011;11865;45.394;10.978;2024-02-04T09:39:58;122.78;;;64.00;;
23384;SDS011;11865;45.394;10.978;2024-02-04T09:42:25;125.22;;;65.38;;
23384;SDS011;11865;45.394;10.978;2024-02-04T09:44:55;122.00;;;64.40;;
23384;SDS011;11865;45.394;10.978;2024-02-04T09:47:23;122.65;;;66.55;;
23384;SDS011;11865;45.394;10.978;2024-02-04T09:49:50;122.68;;;65.20;;
23384;SDS011;11865;45.394;10.978;2024-02-04T09:52:33;130.13;;;66.28;;
23384;SDS011;11865;45.394;10.978;2024-02-04T09:55:04;122.65;;;65.75;;
23384;SDS011;11865;45.394;10.978;2024-02-04T09:57:34;123.55;;;64.78;;
23384;SDS011;11865;45.394;10.978;2024-02-04T10:00:02;130.20;;;69.55;;
23384;SDS011;11865;45.394;10.978;2024-02-04T10:02:39;141.88;;;70.32;;
23384;SDS011;11865;45.394;10.978;2024-02-04T10:05:09;137.38;;;72.10;;
23384;SDS011;11865;45.394;10.978;2024-02-04T10:07:38;130.52;;;69.25;;
23384;SDS011;11865;45.394;10.978;2024-02-04T10:10:06;126.35;;;68.57;;
23384;SDS011;11865;45.394;10.978;2024-02-04T10:12:35;132.30;;;70.13;;
23384;SDS011;11865;45.394;10.978;2024-02-04T10:15:05;127.35;;;69.45;;
23384;SDS011;11865;45.394;10.978;2024-02-04T10:17:33;135.57;;;72.25;;
23384;SDS011;11865;45.394;10.978;2024-02-04T10:20:01;132.43;;;70.75;;
23384;SDS011;11865;45.394;10.978;2024-02-04T10:22:29;148.15;;;75.20;;
23384;SDS011;11865;45.394;10.978;2024-02-04T10:25:07;143.98;;;79.28;;
23384;SDS011;11865;45.394;10.978;2024-02-04T10:27:35;144.45;;;80.40;;
23384;SDS011;11865;45.394;10.978;2024-02-04T10:30:04;162.32;;;85.95;;
23384;SDS011;11865;45.394;10.978;2024-02-04T10:32:33;157.27;;;84.60;;
23384;SDS011;11865;45.394;10.978;2024-02-04T10:35:01;158.23;;;84.15;;
23384;SDS011;11865;45.394;10.978;2024-02-04T10:37:29;154.20;;;85.32;;
23384;SDS011;11865;45.394;10.978;2024-02-04T10:39:57;161.00;;;87.07;;
23384;SDS011;11865;45.394;10.978;2024-02-04T10:42:26;156.75;;;85.00;;
23384;SDS011;11865;45.394;10.978;2024-02-04T10:44:54;152.30;;;83.25;;
23384;SDS011;11865;45.394;10.978;2024-02-04T10:47:25;165.05;;;86.95;;
23384;SDS011;11865;45.394;10.978;2024-02-04T10:50:00;157.88;;;85.38;;
23384;SDS011;11865;45.394;10.978;2024-02-04T10:52:38;168.07;;;91.23;;
23384;SDS011;11865;45.394;10.978;2024-02-04T10:55:10;169.30;;;90.95;;
23384;SDS011;11865;45.394;10.978;2024-02-04T10:57:38;162.05;;;91.95;;
23384;SDS011;11865;45.394;10.978;2024-02-04T11:00:07;170.45;;;91.85;;
23384;SDS011;11865;45.394;10.978;2024-02-04T11:02:39;168.07;;;93.20;;
23384;SDS011;11865;45.394;10.978;2024-02-04T11:05:10;181.48;;;99.57;;
23384;SDS011;11865;45.394;10.978;2024-02-04T11:07:38;179.32;;;100.13;;
23384;SDS011;11865;45.394;10.978;2024-02-04T11:10:06;180.43;;;97.03;;
23384;SDS011;11865;45.394;10.978;2024-02-04T11:12:34;175.63;;;94.57;;
23384;SDS011;11865;45.394;10.978;2024-02-04T11:15:05;178.77;;;101.07;;
23384;SDS011;11865;45.394;10.978;2024-02-04T11:20:20;171.15;;;96.45;;
23384;SDS011;11865;45.394;10.978;2024-02-04T11:25:51;173.30;;;95.22;;
23384;SDS011;11865;45.394;10.978;2024-02-04T11:28:25;172.60;;;94.53;;
23384;SDS011;11865;45.394;10.978;2024-02-04T11:30:54;173.80;;;98.20;;
23384;SDS011;11865;45.394;10.978;2024-02-04T11:33:23;176.98;;;100.18;;
23384;SDS011;11865;45.394;10.978;2024-02-04T11:36:03;179.45;;;98.55;;
23384;SDS011;11865;45.394;10.978;2024-02-04T11:38:36;177.57;;;97.82;;
23384;SDS011;11865;45.394;10.978;2024-02-04T11:41:05;182.23;;;103.10;;
23384;SDS011;11865;45.394;10.978;2024-02-04T11:43:33;184.05;;;101.43;;
23384;SDS011;11865;45.394;10.978;2024-02-04T11:46:02;179.45;;;100.20;;
23384;SDS011;11865;45.394;10.978;2024-02-04T11:48:34;179.18;;;99.65;;
23384;SDS011;11865;45.394;10.978;2024-02-04T11:51:04;182.70;;;102.82;;
23384;SDS011;11865;45.394;10.978;2024-02-04T11:53:33;178.98;;;101.20;;
23384;SDS011;11865;45.394;10.978;2024-02-04T11:56:01;179.02;;;101.45;;
23384;SDS011;11865;45.394;10.978;2024-02-04T11:58:31;183.32;;;100.45;;
23384;SDS011;11865;45.394;10.978;2024-02-04T12:00:59;179.32;;;98.78;;
23384;SDS011;11865;45.394;10.978;2024-02-04T12:03:31;178.63;;;101.75;;
23384;SDS011;11865;45.394;10.978;2024-02-04T12:06:00;172.85;;;96.07;;
23384;SDS011;11865;45.394;10.978;2024-02-04T12:08:30;175.23;;;99.68;;
23384;SDS011;11865;45.394;10.978;2024-02-04T12:11:00;174.85;;;100.45;;
23384;SDS011;11865;45.394;10.978;2024-02-04T12:13:29;173.25;;;99.35;;
23384;SDS011;11865;45.394;10.978;2024-02-04T12:15:57;179.00;;;97.63;;
23384;SDS011;11865;45.394;10.978;2024-02-04T12:18:25;166.65;;;96.13;;
23384;SDS011;11865;45.394;10.978;2024-02-04T12:20:53;165.20;;;95.38;;
23384;SDS011;11865;45.394;10.978;2024-02-04T12:23:21;170.07;;;96.53;;
23384;SDS011;11865;45.394;10.978;2024-02-04T12:25:50;177.25;;;96.13;;
23384;SDS011;11865;45.394;10.978;2024-02-04T12:28:18;179.13;;;101.95;;
23384;SDS011;11865;45.394;10.978;2024-02-04T12:30:53;161.77;;;95.40;;
23384;SDS011;11865;45.394;10.978;2024-02-04T12:33:22;166.45;;;97.63;;
23384;SDS011;11865;45.394;10.978;2024-02-04T12:35:50;163.95;;;95.03;;
23384;SDS011;11865;45.394;10.978;2024-02-04T12:38:23;165.05;;;96.65;;
23384;SDS011;11865;45.394;10.978;2024-02-04T12:40:51;171.48;;;98.43;;
23384;SDS011;11865;45.394;10.978;2024-02-04T12:43:18;173.90;;;99.13;;
23384;SDS011;11865;45.394;10.978;2024-02-04T12:45:46;172.15;;;98.78;;
23384;SDS011;11865;45.394;10.978;2024-02-04T12:48:15;171.40;;;102.60;;
23384;SDS011;11865;45.394;10.978;2024-02-04T12:50:45;172.10;;;100.28;;
23384;SDS011;11865;45.394;10.978;2024-02-04T12:53:13;179.43;;;103.25;;
23384;SDS011;11865;45.394;10.978;2024-02-04T12:55:42;180.55;;;101.93;;
23384;SDS011;11865;45.394;10.978;2024-02-04T12:58:11;174.65;;;100.63;;
23384;SDS011;11865;45.394;10.978;2024-02-04T13:00:41;168.68;;;99.50;;
23384;SDS011;11865;45.394;10.978;2024-02-04T13:03:10;176.93;;;98.88;;
23384;SDS011;11865;45.394;10.978;2024-02-04T13:05:38;177.75;;;104.63;;
23384;SDS011;11865;45.394;10.978;2024-02-04T13:08:05;170.20;;;100.93;;
23384;SDS011;11865;45.394;10.978;2024-02-04T13:10:35;174.10;;;100.25;;
23384;SDS011;11865;45.394;10.978;2024-02-04T13:13:07;169.00;;;99.93;;
23384;SDS011;11865;45.394;10.978;2024-02-04T13:15:40;174.13;;;101.60;;
23384;SDS011;11865;45.394;10.978;2024-02-04T13:18:10;171.60;;;98.78;;
23384;SDS011;11865;45.394;10.978;2024-02-04T13:20:39;177.90;;;101.75;;
23384;SDS011;11865;45.394;10.978;2024-02-04T13:23:08;184.30;;;101.72;;
23384;SDS011;11865;45.394;10.978;2024-02-04T13:25:36;176.98;;;103.45;;
23384;SDS011;11865;45.394;10.978;2024-02-04T13:28:04;174.00;;;102.95;;
23384;SDS011;11865;45.394;10.978;2024-02-04T13:30:32;170.27;;;100.75;;
23384;SDS011;11865;45.394;10.978;2024-02-04T13:33:00;176.75;;;100.65;;
23384;SDS011;11865;45.394;10.978;2024-02-04T13:35:29;178.85;;;101.50;;
23384;SDS011;11865;45.394;10.978;2024-02-04T13:37:57;170.65;;;98.07;;
23384;SDS011;11865;45.394;10.978;2024-02-04T13:40:25;162.07;;;96.35;;
23384;SDS011;11865;45.394;10.978;2024-02-04T13:42:53;171.57;;;102.13;;
23384;SDS011;11865;45.394;10.978;2024-02-04T13:45:21;173.85;;;100.85;;
23384;SDS011;11865;45.394;10.978;2024-02-04T13:47:49;173.05;;;100.90;;
23384;SDS011;11865;45.394;10.978;2024-02-04T13:50:17;177.65;;;101.28;;
23384;SDS011;11865;45.394;10.978;2024-02-04T13:52:45;173.20;;;100.60;;
23384;SDS011;11865;45.394;10.978;2024-02-04T13:55:13;177.13;;;99.65;;
23384;SDS011;11865;45.394;10.978;2024-02-04T13:57:41;178.93;;;104.32;;
23384;SDS011;11865;45.394;10.978;2024-02-04T14:00:09;172.05;;;101.20;;
23384;SDS011;11865;45.394;10.978;2024-02-04T14:02:37;180.55;;;106.25;;
23384;SDS011;11865;45.394;10.978;2024-02-04T14:05:06;182.77;;;107.15;;
23384;SDS011;11865;45.394;10.978;2024-02-04T14:07:34;187.85;;;106.15;;
23384;SDS011;11865;45.394;10.978;2024-02-04T14:10:02;184.73;;;103.70;;
23384;SDS011;11865;45.394;10.978;2024-02-04T14:12:30;186.80;;;104.22;;